createdAt,value
2022-12-19T00:00:08.481Z,-5.00
2022-12-19T00:02:42.385Z,-5.01
2022-12-19T00:05:10.772Z,-5.02
2022-12-19T00:07:37.863Z,-5.02
2022-12-19T00:10:06.862Z,-5.02
2022-12-19T00:12:33.945Z,-4.98
2022-12-19T00:15:00.998Z,-5.03
2022-12-19T00:17:29.397Z,-4.97
2022-12-19T00:19:57.056Z,-4.93
2022-12-19T00:22:24.400Z,-4.95
2022-12-19T00:24:52.111Z,-5.00
2022-12-19T00:27:19.251Z,-4.97
2022-12-19T00:29:46.644Z,-5.05
2022-12-19T00:32:14.322Z,-5.05
2022-12-19T00:34:43.594Z,-5.05
2022-12-19T00:37:11.896Z,-4.99
2022-12-19T00:39:39.169Z,-4.95
2022-12-19T00:42:06.296Z,-4.95
2022-12-19T00:44:33.414Z,-5.01
2022-12-19T00:47:00.686Z,-5.01
2022-12-19T00:49:27.664Z,-5.01
2022-12-19T00:51:57.408Z,-4.99
2022-12-19T00:54:24.806Z,-4.92
2022-12-19T00:56:51.781Z,-4.91
2022-12-19T00:59:26.435Z,-4.79
2022-12-19T01:01:57.414Z,-4.74
2022-12-19T01:04:29.398Z,-4.79
2022-12-19T01:07:02.344Z,-4.82
2022-12-19T01:09:33.060Z,-4.83
2022-12-19T01:12:19.193Z,-4.88
2022-12-19T01:14:48.183Z,-4.86
2022-12-19T01:17:15.642Z,-4.88
2022-12-19T01:19:44.608Z,-4.84
2022-12-19T01:22:14.956Z,-4.80
2022-12-19T01:24:42.524Z,-4.73
2022-12-19T01:27:09.609Z,-4.64
2022-12-19T01:29:52.401Z,-4.62
2022-12-19T01:32:22.279Z,-4.54
2022-12-19T01:34:49.752Z,-4.53
2022-12-19T01:37:17.122Z,-4.48
2022-12-19T01:39:44.858Z,-4.49
2022-12-19T01:42:24.258Z,-4.45
2022-12-19T01:45:13.629Z,-4.28
2022-12-19T01:47:53.511Z,-4.08
2022-12-19T01:50:32.176Z,-3.91
2022-12-19T01:53:00.246Z,-3.89
2022-12-19T01:55:28.039Z,-3.89
2022-12-19T01:57:57.011Z,-3.94
2022-12-19T02:00:24.314Z,-3.77
2022-12-19T02:03:02.547Z,-3.69
2022-12-19T02:05:30.084Z,-3.68
2022-12-19T02:07:59.001Z,-3.73
2022-12-19T02:10:26.308Z,-3.59
2022-12-19T02:12:53.314Z,-3.47
2022-12-19T02:15:21.120Z,-3.44
2022-12-19T02:18:06.906Z,-3.46
2022-12-19T02:21:07.174Z,-3.48
2022-12-19T02:24:06.245Z,-3.54
2022-12-19T02:27:00.380Z,-3.42
2022-12-19T02:30:04.621Z,-3.40
2022-12-19T02:32:42.707Z,-3.55
2022-12-19T02:35:22.847Z,-3.42
2022-12-19T02:38:09.208Z,-3.36
2022-12-19T02:40:45.089Z,-3.28
2022-12-19T02:43:15.857Z,-3.35
2022-12-19T02:45:44.937Z,-3.38
2022-12-19T02:48:17.615Z,-3.35
2022-12-19T02:50:50.243Z,-3.24
2022-12-19T02:53:21.215Z,-3.21
2022-12-19T02:56:30.124Z,-3.20
2022-12-19T02:59:03.185Z,-3.16
2022-12-19T03:01:42.276Z,-3.17
2022-12-19T03:04:46.845Z,-3.13
2022-12-19T03:07:37.342Z,-3.10
2022-12-19T03:10:07.196Z,-3.04
2022-12-19T03:12:40.543Z,-3.03
2022-12-19T03:15:11.147Z,-2.97
2022-12-19T03:17:38.857Z,-2.89
2022-12-19T03:20:19.276Z,-2.83
2022-12-19T03:22:47.043Z,-2.85
2022-12-19T03:25:14.447Z,-2.84
2022-12-19T03:27:42.093Z,-2.83
2022-12-19T03:30:12.900Z,-2.83
2022-12-19T03:32:44.017Z,-2.82
2022-12-19T03:35:17.944Z,-2.84
2022-12-19T03:37:49.460Z,-2.62
2022-12-19T03:40:23.608Z,-2.66
2022-12-19T03:43:11.358Z,-2.63
2022-12-19T03:45:49.871Z,-2.71
2022-12-19T03:48:24.077Z,-2.68
2022-12-19T03:51:05.678Z,-2.59
2022-12-19T03:53:32.611Z,-2.57
2022-12-19T03:56:11.421Z,-2.50
2022-12-19T03:58:42.413Z,-2.49
2022-12-19T04:01:09.900Z,-2.50
2022-12-19T04:03:37.430Z,-2.55
2022-12-19T04:06:06.192Z,-2.53
2022-12-19T04:08:35.515Z,-2.50
2022-12-19T04:11:10.012Z,-2.34
2022-12-19T04:13:39.971Z,-2.31
2022-12-19T04:16:22.174Z,-2.40
2022-12-19T04:18:55.855Z,-2.43
2022-12-19T04:21:36.736Z,-2.44
2022-12-19T04:24:15.873Z,-2.35
2022-12-19T04:26:48.826Z,-2.27
2022-12-19T04:29:16.831Z,-2.17
2022-12-19T04:31:44.803Z,-2.29
2022-12-19T04:34:11.875Z,-2.25
2022-12-19T04:36:38.928Z,-2.25
2022-12-19T04:39:06.284Z,-2.16
2022-12-19T04:41:33.334Z,-2.17
2022-12-19T04:44:00.404Z,-2.19
2022-12-19T04:46:27.851Z,-2.11
2022-12-19T04:48:54.888Z,-2.21
2022-12-19T04:51:21.997Z,-2.19
2022-12-19T04:53:49.318Z,-2.14
2022-12-19T04:56:16.532Z,-2.07
2022-12-19T04:58:43.741Z,-2.18
2022-12-19T05:01:13.999Z,-2.09
2022-12-19T05:03:41.262Z,-2.09
2022-12-19T05:06:10.913Z,-2.07
2022-12-19T05:08:39.989Z,-2.02
2022-12-19T05:11:08.231Z,-2.00
2022-12-19T05:13:35.337Z,-2.01
2022-12-19T05:16:04.752Z,-1.98
2022-12-19T05:18:32.285Z,-1.96
2022-12-19T05:20:59.439Z,-2.05
2022-12-19T05:23:27.148Z,-1.93
2022-12-19T05:25:57.806Z,-1.94
2022-12-19T05:28:25.033Z,-2.03
2022-12-19T05:30:52.783Z,-2.06
2022-12-19T05:33:20.122Z,-1.98
2022-12-19T05:35:47.967Z,-2.02
2022-12-19T05:38:15.360Z,-2.10
2022-12-19T05:40:43.853Z,-2.01
2022-12-19T05:43:10.942Z,-1.96
2022-12-19T05:45:39.898Z,-2.02
2022-12-19T05:48:09.433Z,-1.89
2022-12-19T05:50:36.725Z,-1.90
2022-12-19T05:53:09.593Z,-1.89
2022-12-19T05:55:36.710Z,-1.89
2022-12-19T05:58:03.747Z,-1.87
2022-12-19T06:00:31.156Z,-1.80
2022-12-19T06:02:58.618Z,-1.72
2022-12-19T06:05:25.785Z,-1.72
2022-12-19T06:07:52.939Z,-1.71
2022-12-19T06:10:20.342Z,-1.67
2022-12-19T06:12:47.387Z,-1.72
2022-12-19T06:15:14.522Z,-1.80
2022-12-19T06:17:41.939Z,-1.72
2022-12-19T06:20:09.651Z,-1.82
2022-12-19T06:22:36.739Z,-1.80
2022-12-19T06:25:04.495Z,-1.84
2022-12-19T06:27:31.685Z,-1.82
2022-12-19T06:29:58.733Z,-1.80
2022-12-19T06:32:26.587Z,-1.72
2022-12-19T06:35:04.002Z,-1.70
2022-12-19T06:37:31.922Z,-1.80
2022-12-19T06:39:59.021Z,-1.77
2022-12-19T06:42:26.532Z,-1.80
2022-12-19T06:44:56.340Z,-1.75
2022-12-19T06:47:24.920Z,-1.67
2022-12-19T06:49:52.051Z,-1.66
2022-12-19T06:52:19.486Z,-1.66
2022-12-19T06:54:46.889Z,-1.62
2022-12-19T06:57:14.000Z,-1.72
2022-12-19T06:59:41.427Z,-1.70
2022-12-19T07:02:27.523Z,-1.86
2022-12-19T07:05:02.867Z,-1.74
2022-12-19T07:07:30.221Z,-1.85
2022-12-19T07:09:57.739Z,-1.78
2022-12-19T07:12:24.890Z,-1.78
2022-12-19T07:14:53.700Z,-1.76
2022-12-19T07:17:23.827Z,-1.72
2022-12-19T07:19:51.448Z,-1.74
2022-12-19T07:22:18.652Z,-1.70
2022-12-19T07:24:46.302Z,-1.74
2022-12-19T07:27:13.441Z,-1.70
2022-12-19T07:29:40.517Z,-1.71
2022-12-19T07:32:07.895Z,-1.61
2022-12-19T07:34:35.036Z,-1.66
2022-12-19T07:37:02.205Z,-1.71
2022-12-19T07:39:29.620Z,-1.69
2022-12-19T07:41:56.702Z,-1.69
2022-12-19T07:44:26.880Z,-1.78
2022-12-19T07:46:54.316Z,-1.72
2022-12-19T07:49:22.926Z,-1.72
2022-12-19T07:51:50.214Z,-1.76
2022-12-19T07:54:17.589Z,-1.68
2022-12-19T07:56:44.724Z,-1.58
2022-12-19T07:59:13.102Z,-1.56
2022-12-19T08:01:40.702Z,-1.49
2022-12-19T08:04:08.590Z,-1.40
2022-12-19T08:06:40.739Z,-1.39
2022-12-19T08:09:09.019Z,-1.40
2022-12-19T08:11:36.081Z,-1.32
2022-12-19T08:14:03.639Z,-1.25
2022-12-19T08:16:31.202Z,-1.20
2022-12-19T08:18:58.303Z,-1.20
2022-12-19T08:21:25.613Z,-1.15
2022-12-19T08:23:53.394Z,-1.03
2022-12-19T08:26:25.264Z,-0.87
2022-12-19T08:28:57.725Z,-0.84
2022-12-19T08:31:26.871Z,-0.73
2022-12-19T08:33:56.000Z,-0.64
2022-12-19T08:36:24.037Z,-0.59
2022-12-19T08:38:52.508Z,-0.55
2022-12-19T08:41:20.048Z,-0.58
2022-12-19T08:43:51.718Z,-0.52
2022-12-19T08:46:20.163Z,-0.73
2022-12-19T08:48:47.670Z,-0.96
2022-12-19T08:51:15.522Z,-1.13
2022-12-19T08:53:44.253Z,-1.21
2022-12-19T08:56:13.428Z,-1.28
2022-12-19T08:58:40.915Z,-1.31
2022-12-19T09:01:13.983Z,-1.39
2022-12-19T09:05:01.628Z,-1.35
2022-12-19T09:06:29.261Z,-1.38
2022-12-19T09:09:00.051Z,-1.32
2022-12-19T09:11:27.661Z,-1.30
2022-12-19T09:13:57.359Z,-1.31
2022-12-19T09:16:27.417Z,-1.29
2022-12-19T09:18:58.560Z,-1.32
2022-12-19T09:21:31.560Z,-1.34
2022-12-19T09:24:06.970Z,-1.26
2022-12-19T09:26:35.923Z,-1.10
2022-12-19T09:29:06.820Z,-1.14
2022-12-19T09:31:47.645Z,-1.20
2022-12-19T09:34:24.937Z,-1.19
2022-12-19T09:37:00.988Z,-1.18
2022-12-19T09:39:28.127Z,-1.03
2022-12-19T09:42:03.518Z,-0.95
2022-12-19T09:44:52.505Z,-0.99
2022-12-19T09:47:27.489Z,-0.98
2022-12-19T09:49:55.381Z,-1.02
2022-12-19T09:52:43.715Z,-1.00
2022-12-19T09:55:33.570Z,-0.93
2022-12-19T09:58:12.837Z,-0.85
2022-12-19T10:00:56.796Z,-0.81
2022-12-19T10:03:51.284Z,-0.73
2022-12-19T10:07:19.813Z,-0.60
2022-12-19T10:10:57.305Z,-0.42
2022-12-19T10:12:38.647Z,-0.32
2022-12-19T10:15:18.010Z,-0.27
2022-12-19T10:17:58.100Z,-0.13
2022-12-19T10:20:42.228Z,-0.06
2022-12-19T10:23:31.152Z,0.07
2022-12-19T10:26:18.588Z,0.14
2022-12-19T10:28:51.833Z,0.14
2022-12-19T10:31:33.856Z,0.05
2022-12-19T10:34:24.687Z,0.08
2022-12-19T10:37:27.106Z,-0.01
2022-12-19T10:40:02.195Z,0.02
2022-12-19T10:42:53.534Z,-0.05
2022-12-19T10:45:22.933Z,0.09
2022-12-19T10:47:55.984Z,0.20
2022-12-19T10:50:26.796Z,0.16
2022-12-19T10:53:04.197Z,0.15
2022-12-19T10:56:06.833Z,0.21
2022-12-19T10:58:38.144Z,0.31
2022-12-19T11:01:17.237Z,0.31
2022-12-19T11:03:51.479Z,0.35
2022-12-19T11:06:49.130Z,0.41
2022-12-19T11:09:29.811Z,0.30
2022-12-19T11:16:44.083Z,0.20
2022-12-19T11:20:27.389Z,0.29
2022-12-19T11:23:23.391Z,0.34
2022-12-19T11:29:26.221Z,0.23
2022-12-19T11:29:33.019Z,0.30
2022-12-19T11:29:44.575Z,0.16
2022-12-19T11:32:44.174Z,0.17
2022-12-19T11:35:15.441Z,0.22
2022-12-19T11:37:58.438Z,0.07
2022-12-19T11:40:43.137Z,0.02
2022-12-19T11:43:45.359Z,0.13
2022-12-19T11:46:39.826Z,0.21
2022-12-19T11:49:13.910Z,0.20
2022-12-19T11:51:52.610Z,0.11
2022-12-19T11:54:32.732Z,0.01
2022-12-19T11:56:59.893Z,-0.04
2022-12-19T11:59:36.747Z,0.10
2022-12-19T12:02:52.096Z,0.03
2022-12-19T12:05:41.903Z,0.11
2022-12-19T12:10:33.319Z,0.17
2022-12-19T12:20:18.492Z,0.28
2022-12-19T12:22:43.758Z,0.20
2022-12-19T12:30:42.513Z,0.34
2022-12-19T12:31:00.803Z,0.33
2022-12-19T12:31:49.437Z,0.18
2022-12-19T12:31:58.825Z,0.27
2022-12-19T12:32:02.520Z,0.22
2022-12-19T12:35:42.377Z,0.12
2022-12-19T12:37:52.445Z,-0.04
2022-12-19T12:38:26.652Z,-0.16
2022-12-19T12:41:13.255Z,-0.19
2022-12-19T12:44:00.630Z,-0.16
2022-12-19T12:46:37.403Z,-0.16
2022-12-19T12:49:24.103Z,-0.29
2022-12-19T12:51:55.095Z,-0.30
2022-12-19T12:54:29.741Z,-0.30
2022-12-19T12:56:57.720Z,-0.35
2022-12-19T12:59:31.693Z,-0.55
2022-12-19T13:02:13.563Z,-0.49
2022-12-19T13:04:56.762Z,-0.48
2022-12-19T13:07:50.385Z,-0.44
2022-12-19T13:10:31.666Z,-0.41
2022-12-19T13:13:15.801Z,-0.40
2022-12-19T13:15:46.097Z,-0.43
2022-12-19T13:18:32.753Z,-0.37
2022-12-19T13:21:02.157Z,-0.37
2022-12-19T13:23:29.376Z,-0.31
2022-12-19T13:25:56.842Z,-0.41
2022-12-19T13:28:23.887Z,-0.41
2022-12-19T13:31:21.036Z,-0.46
2022-12-19T13:33:53.875Z,-0.52
2022-12-19T13:39:50.481Z,-0.57
2022-12-19T13:39:54.622Z,-0.65
2022-12-19T13:42:55.138Z,-0.64
2022-12-19T13:45:41.424Z,-0.70
2022-12-19T13:48:16.515Z,-0.73
2022-12-19T13:50:47.753Z,-0.73
2022-12-19T13:53:27.794Z,-0.76
2022-12-19T13:55:59.559Z,-0.65
2022-12-19T13:58:47.504Z,-0.78
2022-12-19T14:01:21.457Z,-0.75
2022-12-19T14:03:51.576Z,-0.74
2022-12-19T14:06:26.338Z,-0.87
2022-12-19T14:09:37.452Z,-0.90
2022-12-19T14:13:41.988Z,-0.89
2022-12-19T14:15:13.178Z,-0.99
2022-12-19T14:17:40.976Z,-1.06
2022-12-19T14:21:19.439Z,-1.06
2022-12-19T14:23:10.936Z,-1.07
2022-12-19T14:28:19.134Z,-1.14
2022-12-19T14:28:48.953Z,-1.20
2022-12-19T14:31:20.648Z,-1.28
2022-12-19T14:34:18.410Z,-1.30
2022-12-19T14:36:40.861Z,-1.33
2022-12-19T14:39:27.195Z,-1.28
2022-12-19T14:42:31.585Z,-1.35
2022-12-19T14:52:34.558Z,-1.33
2022-12-19T14:54:00.856Z,-1.31
2022-12-19T14:54:40.197Z,-1.30
2022-12-19T14:55:58.911Z,-1.47
2022-12-19T14:57:28.958Z,-1.67
2022-12-19T15:01:07.186Z,-1.72
2022-12-19T15:03:31.137Z,-1.69
2022-12-19T15:06:49.281Z,-1.70
2022-12-19T15:11:00.304Z,-1.70
2022-12-19T15:14:47.570Z,-1.82
2022-12-19T15:15:22.274Z,-1.77
2022-12-19T15:17:52.495Z,-1.83
2022-12-19T15:20:20.792Z,-1.87
2022-12-19T15:22:48.444Z,-1.87
2022-12-19T15:25:44.151Z,-1.87
2022-12-19T15:28:18.412Z,-1.85
2022-12-19T15:30:56.561Z,-1.94
2022-12-19T15:33:24.015Z,-1.90
2022-12-19T15:35:51.498Z,-1.91
2022-12-19T15:38:18.665Z,-1.87
2022-12-19T15:40:45.851Z,-2.02
2022-12-19T15:43:53.190Z,-2.05
2022-12-19T15:46:05.069Z,-1.91
2022-12-19T15:48:37.301Z,-1.90
2022-12-19T15:51:04.418Z,-1.96
2022-12-19T15:53:40.789Z,-2.03
2022-12-19T15:56:27.355Z,-2.09
2022-12-19T15:58:57.156Z,-2.02
2022-12-19T16:01:26.531Z,-2.06
2022-12-19T16:03:56.096Z,-1.95
2022-12-19T16:06:23.440Z,-2.10
2022-12-19T16:08:50.544Z,-2.06
2022-12-19T16:11:23.749Z,-2.00
2022-12-19T16:13:56.612Z,-2.13
2022-12-19T16:16:23.943Z,-2.06
2022-12-19T16:18:50.991Z,-2.10
2022-12-19T16:21:33.531Z,-2.09
2022-12-19T16:24:01.704Z,-2.20
2022-12-19T16:26:33.679Z,-2.07
2022-12-19T16:29:01.823Z,-2.01
2022-12-19T16:31:29.335Z,-1.99
2022-12-19T16:33:56.582Z,-1.85
2022-12-19T16:36:23.699Z,-1.90
2022-12-19T16:38:51.073Z,-1.81
2022-12-19T16:41:21.599Z,-1.88
2022-12-19T16:43:49.347Z,-1.85
2022-12-19T16:46:30.892Z,-1.75
2022-12-19T16:48:58.462Z,-1.76
2022-12-19T16:51:27.829Z,-1.77
2022-12-19T16:53:58.869Z,-1.76
2022-12-19T16:56:39.156Z,-1.77
2022-12-19T16:59:14.227Z,-1.75
2022-12-19T17:01:44.301Z,-1.76
2022-12-19T17:04:21.628Z,-1.73
2022-12-19T17:06:50.621Z,-1.60
2022-12-19T17:09:20.199Z,-1.59
2022-12-19T17:11:50.451Z,-1.59
2022-12-19T17:14:20.815Z,-1.48
2022-12-19T17:16:48.863Z,-1.53
2022-12-19T17:19:23.701Z,-1.45
2022-12-19T17:21:51.437Z,-1.45
2022-12-19T17:24:18.959Z,-1.44
2022-12-19T17:26:46.557Z,-1.51
2022-12-19T17:29:14.088Z,-1.38
2022-12-19T17:31:42.274Z,-1.37
2022-12-19T17:34:21.598Z,-1.27
2022-12-19T17:36:49.050Z,-1.25
2022-12-19T17:39:22.754Z,-1.29
2022-12-19T17:41:51.477Z,-1.27
2022-12-19T17:44:18.738Z,-1.39
2022-12-19T17:46:47.470Z,-1.37
2022-12-19T17:49:24.716Z,-1.29
2022-12-19T17:51:52.370Z,-1.35
2022-12-19T17:54:21.421Z,-1.24
2022-12-19T17:56:49.034Z,-1.22
2022-12-19T17:59:16.729Z,-1.27
2022-12-19T18:01:46.379Z,-1.30
2022-12-19T18:04:16.832Z,-1.30
2022-12-19T18:06:44.736Z,-1.31
2022-12-19T18:09:25.228Z,-1.12
2022-12-19T18:11:53.047Z,-1.07
2022-12-19T18:14:20.123Z,-1.23
2022-12-19T18:16:50.278Z,-1.25
2022-12-19T18:19:23.492Z,-1.27
2022-12-19T18:21:50.663Z,-1.22
2022-12-19T18:24:18.030Z,-1.22
2022-12-19T18:26:45.317Z,-1.16
2022-12-19T18:29:12.789Z,-1.22
2022-12-19T18:31:48.131Z,-1.23
2022-12-19T18:34:24.107Z,-1.21
2022-12-19T18:36:53.026Z,-1.28
2022-12-19T18:39:25.728Z,-1.27
2022-12-19T18:41:53.949Z,-1.23
2022-12-19T18:44:23.087Z,-1.27
2022-12-19T18:46:51.648Z,-1.28
2022-12-19T18:49:19.547Z,-1.27
2022-12-19T18:51:47.108Z,-1.23
2022-12-19T18:54:17.202Z,-1.15
2022-12-19T18:56:45.367Z,-1.20
2022-12-19T18:59:12.674Z,-1.26
2022-12-19T19:01:43.937Z,-1.23
2022-12-19T19:04:13.284Z,-1.24
2022-12-19T19:06:48.335Z,-1.29
2022-12-19T19:09:18.513Z,-1.28
2022-12-19T19:11:47.293Z,-1.30
2022-12-19T19:14:14.686Z,-1.36
2022-12-19T19:16:42.142Z,-1.38
2022-12-19T19:19:14.514Z,-1.40
2022-12-19T19:21:42.667Z,-1.35
2022-12-19T19:24:17.529Z,-1.37
2022-12-19T19:26:44.848Z,-1.47
2022-12-19T19:29:13.678Z,-1.49
2022-12-19T19:31:45.742Z,-1.50
2022-12-19T19:34:21.833Z,-1.49
2022-12-19T19:36:53.535Z,-1.34
2022-12-19T19:39:22.906Z,-1.48
2022-12-19T19:41:50.280Z,-1.38
2022-12-19T19:44:17.277Z,-1.27
2022-12-19T19:46:44.935Z,-1.26
2022-12-19T19:49:12.322Z,-1.29
2022-12-19T19:51:39.518Z,-1.25
2022-12-19T19:54:06.944Z,-1.34
2022-12-19T19:56:34.049Z,-1.37
2022-12-19T19:59:01.065Z,-1.35
2022-12-19T20:01:28.569Z,-1.37
2022-12-19T20:03:56.181Z,-1.37
2022-12-19T20:06:26.182Z,-1.38
2022-12-19T20:08:53.176Z,-1.41
2022-12-19T20:11:20.953Z,-1.37
2022-12-19T20:13:48.158Z,-1.40
2022-12-19T20:16:17.408Z,-1.36
2022-12-19T20:18:52.817Z,-1.49
2022-12-19T20:21:20.842Z,-1.45
2022-12-19T20:23:48.450Z,-1.35
2022-12-19T20:26:16.769Z,-1.38
2022-12-19T20:28:49.069Z,-1.38
2022-12-19T20:31:23.500Z,-1.42
2022-12-19T20:33:53.034Z,-1.35
2022-12-19T20:36:22.109Z,-1.36
2022-12-19T20:38:49.555Z,-1.30
2022-12-19T20:41:17.395Z,-1.34
2022-12-19T20:43:45.221Z,-1.49
2022-12-19T20:46:15.859Z,-1.36
2022-12-19T20:48:43.741Z,-1.32
2022-12-19T20:51:12.294Z,-1.22
2022-12-19T20:53:41.512Z,-1.27
2022-12-19T20:56:15.247Z,-1.27
2022-12-19T20:58:43.220Z,-1.29
2022-12-19T21:01:16.370Z,-1.30
2022-12-19T21:03:45.284Z,-1.29
2022-12-19T21:06:15.881Z,-1.24
2022-12-19T21:08:43.091Z,-1.28
2022-12-19T21:11:11.343Z,-1.17
2022-12-19T21:13:39.489Z,-1.20
2022-12-19T21:16:08.990Z,-1.25
2022-12-19T21:18:38.270Z,-1.21
2022-12-19T21:21:06.665Z,-1.19
2022-12-19T21:23:34.026Z,-1.21
2022-12-19T21:26:02.835Z,-1.27
2022-12-19T21:28:30.669Z,-1.38
2022-12-19T21:31:08.274Z,-1.30
2022-12-19T21:33:35.632Z,-1.29
2022-12-19T21:36:14.471Z,-1.35
2022-12-19T21:38:42.311Z,-1.32
2022-12-19T21:41:10.654Z,-1.44
2022-12-19T21:43:38.153Z,-1.48
2022-12-19T21:46:11.194Z,-1.56
2022-12-19T21:48:40.528Z,-1.62
2022-12-19T21:51:09.816Z,-1.56
2022-12-19T21:53:38.540Z,-1.57
2022-12-19T21:56:26.699Z,-1.49
2022-12-19T21:59:00.672Z,-1.41
2022-12-19T22:01:29.330Z,-1.51
2022-12-19T22:04:06.355Z,-1.57
2022-12-19T22:06:35.546Z,-1.57
2022-12-19T22:09:04.355Z,-1.62
2022-12-19T22:11:31.510Z,-1.61
2022-12-19T22:14:02.357Z,-1.62
2022-12-19T22:16:29.825Z,-1.73
2022-12-19T22:18:57.377Z,-1.79
2022-12-19T22:21:25.564Z,-1.79
2022-12-19T22:23:57.285Z,-1.75
2022-12-19T22:26:26.016Z,-1.74
2022-12-19T22:28:55.682Z,-1.85
2022-12-19T22:31:25.195Z,-1.89
2022-12-19T22:33:55.155Z,-1.93
2022-12-19T22:36:28.086Z,-2.03
2022-12-19T22:38:57.511Z,-1.97
2022-12-19T22:41:25.829Z,-1.97
2022-12-19T22:43:53.946Z,-2.18
2022-12-19T22:46:27.298Z,-2.23
2022-12-19T22:49:00.523Z,-2.18
2022-12-19T22:51:28.906Z,-2.11
2022-12-19T22:53:57.197Z,-2.08
2022-12-19T22:56:27.366Z,-2.14
2022-12-19T22:58:58.438Z,-2.21
2022-12-19T23:01:27.163Z,-2.19
2022-12-19T23:03:56.611Z,-2.15
2022-12-19T23:06:25.624Z,-2.12
2022-12-19T23:08:53.682Z,-2.15
2022-12-19T23:11:27.693Z,-2.27
2022-12-19T23:13:55.051Z,-2.20
2022-12-19T23:16:22.715Z,-2.24
2022-12-19T23:18:49.884Z,-2.23
2022-12-19T23:21:19.849Z,-2.32
2022-12-19T23:23:49.926Z,-2.39
2022-12-19T23:26:21.733Z,-2.32
2022-12-19T23:28:57.423Z,-2.31
2022-12-19T23:31:27.207Z,-2.34
2022-12-19T23:33:55.383Z,-2.33
2022-12-19T23:36:44.958Z,-2.42
2022-12-19T23:39:11.601Z,-2.35
2022-12-19T23:41:39.767Z,-2.42
2022-12-19T23:44:08.129Z,-2.42
2022-12-19T23:46:35.876Z,-2.44
2022-12-19T23:49:03.782Z,-2.37
2022-12-19T23:51:30.936Z,-2.33
2022-12-19T23:53:58.508Z,-2.25
2022-12-19T23:56:28.819Z,-2.13
2022-12-19T23:58:56.629Z,-2.18
